Pagrindinis puslapis
METAR-TAF:

METAR-TAF

Oro uostai :

Burlengė, Švedija

platuma: 60-26N, ilguma: 015-31E, Aukštis: 145 m

Dabartinis oras

Ataskaita buvo paskelbta 24 minutes, ne 01:50 UTC
Ramus vėjas
Temperatūra 9°C
Drėgmė 100%
Slėgis 1021 hPa
Matomumas 10 km arba daugiau

METAR: ESSD 240150Z AUTO 00000KT 9999 NCD 09/09 Q1021

Laikas: 04:14 (02:14 UTC)

Prognozė

Ataskaita buvo paskelbta 14 valandos ir 44 minutes, ne 11:30 UTC
Prognozė galioja nuo 23 metu 12 UTC su 23 metu 15 UTC
Vėjas 10 kt iš Pietų
Matomumas 10 km arba daugiau
Su prošvaistėmis ne aukštis 3000 ft
Laikinai
nuo 23 metu 12 UTC su 23 metu 13 UTC
Su prošvaistėmis ne aukštis 1200 ft
Su prošvaistėmis ne aukštis 3000 ft, Liūtiniai kamuoliniai debesys.
lietus
Tapsmas
nuo 23 metu 12 UTC su 23 metu 14 UTC
Vėjas 8 kt iš Vakarų/Pietvakarių

TAF: ESSD 231130Z 2312/2315 19010KT 9999 BKN030 TEMPO 2312/2313 RA BKN012 BKN030CB BECMG 2312/2314 25008KT

Orai ataskaitas ir orų prognozės (METAR, TAF).

turimą stotys yra geltonos ir raudonos taškus žemėlapyje.

Perkelti pele per norėdami pamatyti stoties vardą.

Tada spustelėkite, norėdami matyti oro stebėjimo ir prognozės.

Norėdami pakeisti žemėlapį: spustelėkite ant žalios mygtukų su juodo kryžiaus žemyn,; žalią mygtuką su brūkšneliu, jei norite nutolinti; arba žalių rodyklių gretimoms žemėlapius.


METAR-TAF: